sensor_id;sensor_type;location;lat;lon;timestamp;P1;durP1;ratioP1;P2;durP2;ratioP2
38425;SDS011;24210;51.460;6.148;2022-12-07T00:01:26;8.57;;;7.35;;
38425;SDS011;24210;51.460;6.148;2022-12-07T00:03:52;9.82;;;7.90;;
38425;SDS011;24210;51.460;6.148;2022-12-07T00:06:18;10.82;;;7.35;;
38425;SDS011;24210;51.460;6.148;2022-12-07T00:08:44;11.50;;;8.27;;
38425;SDS011;24210;51.460;6.148;2022-12-07T00:11:14;12.17;;;7.03;;
38425;SDS011;24210;51.460;6.148;2022-12-07T00:13:39;8.48;;;6.20;;
38425;SDS011;24210;51.460;6.148;2022-12-07T00:16:06;10.33;;;7.77;;
38425;SDS011;24210;51.460;6.148;2022-12-07T00:18:32;11.80;;;7.63;;
38425;SDS011;24210;51.460;6.148;2022-12-07T00:21:01;9.57;;;6.90;;
38425;SDS011;24210;51.460;6.148;2022-12-07T00:23:27;7.80;;;5.95;;
38425;SDS011;24210;51.460;6.148;2022-12-07T00:25:52;6.73;;;6.03;;
38425;SDS011;24210;51.460;6.148;2022-12-07T00:28:17;8.50;;;7.40;;
38425;SDS011;24210;51.460;6.148;2022-12-07T00:30:42;12.27;;;7.77;;
38425;SDS011;24210;51.460;6.148;2022-12-07T00:33:08;11.57;;;7.67;;
38425;SDS011;24210;51.460;6.148;2022-12-07T00:35:33;7.13;;;5.73;;
38425;SDS011;24210;51.460;6.148;2022-12-07T00:37:58;7.63;;;6.23;;
38425;SDS011;24210;51.460;6.148;2022-12-07T00:40:23;11.70;;;7.53;;
38425;SDS011;24210;51.460;6.148;2022-12-07T00:42:48;10.43;;;7.33;;
38425;SDS011;24210;51.460;6.148;2022-12-07T00:45:14;9.30;;;6.77;;
38425;SDS011;24210;51.460;6.148;2022-12-07T00:47:39;8.03;;;6.40;;
38425;SDS011;24210;51.460;6.148;2022-12-07T00:50:04;7.70;;;6.47;;
38425;SDS011;24210;51.460;6.148;2022-12-07T00:52:30;10.07;;;7.87;;
38425;SDS011;24210;51.460;6.148;2022-12-07T00:54:55;9.17;;;7.67;;
38425;SDS011;24210;51.460;6.148;2022-12-07T00:57:20;11.83;;;8.50;;
38425;SDS011;24210;51.460;6.148;2022-12-07T00:59:45;8.83;;;6.47;;
38425;SDS011;24210;51.460;6.148;2022-12-07T01:02:11;7.83;;;6.67;;
38425;SDS011;24210;51.460;6.148;2022-12-07T01:04:36;8.77;;;6.60;;
38425;SDS011;24210;51.460;6.148;2022-12-07T01:07:01;13.53;;;5.90;;
38425;SDS011;24210;51.460;6.148;2022-12-07T01:09:26;6.67;;;5.60;;
38425;SDS011;24210;51.460;6.148;2022-12-07T01:11:51;10.30;;;6.93;;
38425;SDS011;24210;51.460;6.148;2022-12-07T01:14:17;7.23;;;5.30;;
38425;SDS011;24210;51.460;6.148;2022-12-07T01:16:42;7.93;;;6.33;;
38425;SDS011;24210;51.460;6.148;2022-12-07T01:19:07;10.73;;;8.17;;
38425;SDS011;24210;51.460;6.148;2022-12-07T01:21:33;13.33;;;7.93;;
38425;SDS011;24210;51.460;6.148;2022-12-07T01:24:06;13.25;;;7.78;;
38425;SDS011;24210;51.460;6.148;2022-12-07T01:26:32;7.93;;;7.10;;
38425;SDS011;24210;51.460;6.148;2022-12-07T01:28:57;7.37;;;6.47;;
38425;SDS011;24210;51.460;6.148;2022-12-07T01:31:24;9.98;;;7.13;;
38425;SDS011;24210;51.460;6.148;2022-12-07T01:33:52;8.48;;;6.03;;
38425;SDS011;24210;51.460;6.148;2022-12-07T01:36:21;9.77;;;7.55;;
38425;SDS011;24210;51.460;6.148;2022-12-07T01:38:47;11.10;;;6.70;;
38425;SDS011;24210;51.460;6.148;2022-12-07T01:41:13;10.48;;;5.90;;
38425;SDS011;24210;51.460;6.148;2022-12-07T01:46:23;8.70;;;6.60;;
38425;SDS011;24210;51.460;6.148;2022-12-07T01:48:48;7.90;;;6.07;;
38425;SDS011;24210;51.460;6.148;2022-12-07T01:51:13;12.80;;;8.33;;
38425;SDS011;24210;51.460;6.148;2022-12-07T01:53:40;8.47;;;7.57;;
38425;SDS011;24210;51.460;6.148;2022-12-07T01:56:08;11.13;;;8.18;;
38425;SDS011;24210;51.460;6.148;2022-12-07T01:58:35;10.25;;;7.60;;
38425;SDS011;24210;51.460;6.148;2022-12-07T02:01:00;13.47;;;8.37;;
38425;SDS011;24210;51.460;6.148;2022-12-07T02:03:32;9.67;;;7.43;;
38425;SDS011;24210;51.460;6.148;2022-12-07T02:05:59;10.55;;;6.50;;
38425;SDS011;24210;51.460;6.148;2022-12-07T02:08:25;11.03;;;7.30;;
38425;SDS011;24210;51.460;6.148;2022-12-07T02:10:50;8.33;;;7.03;;
38425;SDS011;24210;51.460;6.148;2022-12-07T02:13:20;9.03;;;7.50;;
38425;SDS011;24210;51.460;6.148;2022-12-07T02:21:07;12.70;;;7.60;;
38425;SDS011;24210;51.460;6.148;2022-12-07T02:28:35;9.30;;;8.07;;
38425;SDS011;24210;51.460;6.148;2022-12-07T02:31:05;8.07;;;7.28;;
38425;SDS011;24210;51.460;6.148;2022-12-07T02:33:33;7.55;;;6.40;;
38425;SDS011;24210;51.460;6.148;2022-12-07T02:36:04;10.35;;;7.50;;
38425;SDS011;24210;51.460;6.148;2022-12-07T02:38:45;7.50;;;6.53;;
38425;SDS011;24210;51.460;6.148;2022-12-07T02:41:15;9.30;;;7.10;;
38425;SDS011;24210;51.460;6.148;2022-12-07T02:43:46;10.45;;;7.47;;
38425;SDS011;24210;51.460;6.148;2022-12-07T02:49:04;8.75;;;6.25;;
38425;SDS011;24210;51.460;6.148;2022-12-07T02:51:30;9.50;;;6.60;;
38425;SDS011;24210;51.460;6.148;2022-12-07T02:53:55;12.00;;;7.33;;
38425;SDS011;24210;51.460;6.148;2022-12-07T02:57:04;8.03;;;6.30;;
38425;SDS011;24210;51.460;6.148;2022-12-07T03:07:11;8.40;;;6.75;;
38425;SDS011;24210;51.460;6.148;2022-12-07T03:12:11;9.10;;;7.17;;
38425;SDS011;24210;51.460;6.148;2022-12-07T03:14:40;9.30;;;6.57;;
38425;SDS011;24210;51.460;6.148;2022-12-07T03:19:34;9.90;;;6.95;;
38425;SDS011;24210;51.460;6.148;2022-12-07T03:22:05;9.70;;;6.88;;
38425;SDS011;24210;51.460;6.148;2022-12-07T03:24:37;7.80;;;7.05;;
38425;SDS011;24210;51.460;6.148;2022-12-07T03:27:16;9.90;;;6.90;;
38425;SDS011;24210;51.460;6.148;2022-12-07T03:29:54;9.70;;;7.10;;
38425;SDS011;24210;51.460;6.148;2022-12-07T03:32:31;7.88;;;6.78;;
38425;SDS011;24210;51.460;6.148;2022-12-07T03:38:17;10.95;;;7.28;;
38425;SDS011;24210;51.460;6.148;2022-12-07T03:42:55;10.73;;;7.28;;
38425;SDS011;24210;51.460;6.148;2022-12-07T03:45:26;9.60;;;7.10;;
38425;SDS011;24210;51.460;6.148;2022-12-07T03:47:59;7.93;;;7.13;;
38425;SDS011;24210;51.460;6.148;2022-12-07T03:50:29;8.85;;;6.68;;
38425;SDS011;24210;51.460;6.148;2022-12-07T03:52:58;10.10;;;6.40;;
38425;SDS011;24210;51.460;6.148;2022-12-07T03:55:29;9.73;;;6.85;;
38425;SDS011;24210;51.460;6.148;2022-12-07T03:57:56;7.57;;;6.57;;
38425;SDS011;24210;51.460;6.148;2022-12-07T04:00:23;8.63;;;6.95;;
38425;SDS011;24210;51.460;6.148;2022-12-07T04:02:51;7.87;;;6.43;;
38425;SDS011;24210;51.460;6.148;2022-12-07T04:05:16;7.32;;;5.53;;
38425;SDS011;24210;51.460;6.148;2022-12-07T04:07:41;7.87;;;6.10;;
38425;SDS011;24210;51.460;6.148;2022-12-07T04:10:07;9.37;;;7.13;;
38425;SDS011;24210;51.460;6.148;2022-12-07T04:12:32;9.57;;;7.00;;
38425;SDS011;24210;51.460;6.148;2022-12-07T04:14:57;8.63;;;6.07;;
38425;SDS011;24210;51.460;6.148;2022-12-07T04:17:23;8.30;;;6.20;;
38425;SDS011;24210;51.460;6.148;2022-12-07T04:19:48;8.57;;;6.30;;
38425;SDS011;24210;51.460;6.148;2022-12-07T04:22:13;9.77;;;6.77;;
38425;SDS011;24210;51.460;6.148;2022-12-07T04:24:38;7.90;;;6.00;;
38425;SDS011;24210;51.460;6.148;2022-12-07T04:27:04;9.27;;;6.53;;
38425;SDS011;24210;51.460;6.148;2022-12-07T04:29:29;7.23;;;6.40;;
38425;SDS011;24210;51.460;6.148;2022-12-07T04:31:54;7.97;;;5.30;;
38425;SDS011;24210;51.460;6.148;2022-12-07T04:34:19;8.17;;;5.90;;
38425;SDS011;24210;51.460;6.148;2022-12-07T04:36:45;7.73;;;4.90;;
38425;SDS011;24210;51.460;6.148;2022-12-07T04:39:22;9.50;;;6.25;;
38425;SDS011;24210;51.460;6.148;2022-12-07T04:41:48;7.28;;;5.82;;
38425;SDS011;24210;51.460;6.148;2022-12-07T04:44:14;6.00;;;5.40;;
38425;SDS011;24210;51.460;6.148;2022-12-07T04:46:39;7.10;;;6.32;;
38425;SDS011;24210;51.460;6.148;2022-12-07T04:49:05;9.90;;;6.83;;
38425;SDS011;24210;51.460;6.148;2022-12-07T04:51:30;9.23;;;5.90;;
38425;SDS011;24210;51.460;6.148;2022-12-07T04:53:55;6.53;;;5.13;;
38425;SDS011;24210;51.460;6.148;2022-12-07T04:56:21;8.47;;;5.07;;
38425;SDS011;24210;51.460;6.148;2022-12-07T04:58:47;8.63;;;4.97;;
38425;SDS011;24210;51.460;6.148;2022-12-07T05:01:12;9.20;;;6.63;;
38425;SDS011;24210;51.460;6.148;2022-12-07T05:03:38;8.87;;;5.43;;
38425;SDS011;24210;51.460;6.148;2022-12-07T05:06:03;6.87;;;5.87;;
38425;SDS011;24210;51.460;6.148;2022-12-07T05:08:29;6.83;;;5.47;;
38425;SDS011;24210;51.460;6.148;2022-12-07T05:10:54;8.27;;;5.50;;
38425;SDS011;24210;51.460;6.148;2022-12-07T05:13:19;6.23;;;4.80;;
38425;SDS011;24210;51.460;6.148;2022-12-07T05:15:46;7.10;;;5.07;;
38425;SDS011;24210;51.460;6.148;2022-12-07T05:20:37;10.32;;;5.25;;
38425;SDS011;24210;51.460;6.148;2022-12-07T05:23:03;7.50;;;5.60;;
38425;SDS011;24210;51.460;6.148;2022-12-07T05:25:28;7.33;;;4.73;;
38425;SDS011;24210;51.460;6.148;2022-12-07T05:27:54;6.87;;;5.63;;
38425;SDS011;24210;51.460;6.148;2022-12-07T05:30:19;9.18;;;5.50;;
38425;SDS011;24210;51.460;6.148;2022-12-07T05:32:45;5.83;;;5.07;;
38425;SDS011;24210;51.460;6.148;2022-12-07T05:35:10;8.23;;;5.83;;
38425;SDS011;24210;51.460;6.148;2022-12-07T05:37:35;6.17;;;4.97;;
38425;SDS011;24210;51.460;6.148;2022-12-07T05:40:00;6.90;;;6.20;;
38425;SDS011;24210;51.460;6.148;2022-12-07T05:42:25;7.80;;;4.87;;
38425;SDS011;24210;51.460;6.148;2022-12-07T05:44:51;9.40;;;5.20;;
38425;SDS011;24210;51.460;6.148;2022-12-07T05:47:16;7.50;;;5.07;;
38425;SDS011;24210;51.460;6.148;2022-12-07T05:49:41;5.70;;;5.10;;
38425;SDS011;24210;51.460;6.148;2022-12-07T05:52:06;11.73;;;5.87;;
38425;SDS011;24210;51.460;6.148;2022-12-07T05:54:32;8.10;;;5.23;;
38425;SDS011;24210;51.460;6.148;2022-12-07T05:56:57;5.50;;;4.70;;
38425;SDS011;24210;51.460;6.148;2022-12-07T05:59:23;8.53;;;5.63;;
38425;SDS011;24210;51.460;6.148;2022-12-07T06:01:49;7.23;;;5.17;;
38425;SDS011;24210;51.460;6.148;2022-12-07T06:04:14;8.07;;;5.10;;
38425;SDS011;24210;51.460;6.148;2022-12-07T06:06:39;7.53;;;4.50;;
38425;SDS011;24210;51.460;6.148;2022-12-07T06:09:04;7.83;;;4.20;;
38425;SDS011;24210;51.460;6.148;2022-12-07T06:11:30;4.57;;;3.70;;
38425;SDS011;24210;51.460;6.148;2022-12-07T06:14:14;9.10;;;3.90;;
38425;SDS011;24210;51.460;6.148;2022-12-07T06:16:39;5.33;;;3.87;;
38425;SDS011;24210;51.460;6.148;2022-12-07T06:19:04;6.77;;;4.40;;
38425;SDS011;24210;51.460;6.148;2022-12-07T06:21:29;7.83;;;4.67;;
38425;SDS011;24210;51.460;6.148;2022-12-07T06:23:55;7.47;;;3.83;;
38425;SDS011;24210;51.460;6.148;2022-12-07T06:26:20;4.87;;;3.07;;
38425;SDS011;24210;51.460;6.148;2022-12-07T06:28:45;6.97;;;4.17;;
38425;SDS011;24210;51.460;6.148;2022-12-07T06:31:11;9.40;;;5.13;;
38425;SDS011;24210;51.460;6.148;2022-12-07T06:33:36;7.03;;;4.20;;
38425;SDS011;24210;51.460;6.148;2022-12-07T06:36:01;9.07;;;4.40;;
38425;SDS011;24210;51.460;6.148;2022-12-07T06:38:26;6.10;;;4.07;;
38425;SDS011;24210;51.460;6.148;2022-12-07T06:40:52;10.33;;;4.53;;
38425;SDS011;24210;51.460;6.148;2022-12-07T06:43:17;6.70;;;4.33;;
38425;SDS011;24210;51.460;6.148;2022-12-07T06:45:42;9.63;;;4.53;;
38425;SDS011;24210;51.460;6.148;2022-12-07T06:48:08;6.37;;;4.60;;
38425;SDS011;24210;51.460;6.148;2022-12-07T06:50:33;7.90;;;4.63;;
38425;SDS011;24210;51.460;6.148;2022-12-07T06:52:58;10.10;;;4.60;;
38425;SDS011;24210;51.460;6.148;2022-12-07T06:55:23;5.40;;;4.47;;
38425;SDS011;24210;51.460;6.148;2022-12-07T06:57:48;8.23;;;5.10;;
38425;SDS011;24210;51.460;6.148;2022-12-07T07:00:14;6.80;;;4.83;;
38425;SDS011;24210;51.460;6.148;2022-12-07T07:02:39;12.73;;;4.97;;
38425;SDS011;24210;51.460;6.148;2022-12-07T07:05:04;5.10;;;4.23;;
38425;SDS011;24210;51.460;6.148;2022-12-07T07:07:30;5.80;;;4.63;;
38425;SDS011;24210;51.460;6.148;2022-12-07T07:09:55;5.33;;;4.10;;
38425;SDS011;24210;51.460;6.148;2022-12-07T07:12:20;5.47;;;4.67;;
38425;SDS011;24210;51.460;6.148;2022-12-07T07:14:46;8.10;;;4.87;;
38425;SDS011;24210;51.460;6.148;2022-12-07T07:17:11;8.27;;;4.50;;
38425;SDS011;24210;51.460;6.148;2022-12-07T07:19:36;5.43;;;4.43;;
38425;SDS011;24210;51.460;6.148;2022-12-07T07:22:02;7.60;;;4.88;;
38425;SDS011;24210;51.460;6.148;2022-12-07T07:24:28;5.17;;;4.23;;
38425;SDS011;24210;51.460;6.148;2022-12-07T07:26:53;7.97;;;4.50;;
38425;SDS011;24210;51.460;6.148;2022-12-07T07:29:18;8.33;;;5.10;;
38425;SDS011;24210;51.460;6.148;2022-12-07T07:31:43;7.83;;;4.67;;
38425;SDS011;24210;51.460;6.148;2022-12-07T07:34:08;8.70;;;4.73;;
38425;SDS011;24210;51.460;6.148;2022-12-07T07:36:34;6.83;;;4.67;;
38425;SDS011;24210;51.460;6.148;2022-12-07T07:38:59;7.33;;;4.20;;
38425;SDS011;24210;51.460;6.148;2022-12-07T07:41:24;7.60;;;4.93;;
38425;SDS011;24210;51.460;6.148;2022-12-07T07:43:49;5.00;;;4.50;;
38425;SDS011;24210;51.460;6.148;2022-12-07T07:46:15;10.40;;;4.97;;
38425;SDS011;24210;51.460;6.148;2022-12-07T07:48:40;9.00;;;3.40;;
38425;SDS011;24210;51.460;6.148;2022-12-07T07:51:06;8.13;;;5.63;;
38425;SDS011;24210;51.460;6.148;2022-12-07T07:53:32;5.28;;;4.15;;
38425;SDS011;24210;51.460;6.148;2022-12-07T07:55:57;7.80;;;4.97;;
38425;SDS011;24210;51.460;6.148;2022-12-07T07:58:22;8.33;;;3.60;;
38425;SDS011;24210;51.460;6.148;2022-12-07T08:00:47;7.63;;;4.67;;
38425;SDS011;24210;51.460;6.148;2022-12-07T08:03:12;6.27;;;5.60;;
38425;SDS011;24210;51.460;6.148;2022-12-07T08:05:38;11.03;;;5.73;;
38425;SDS011;24210;51.460;6.148;2022-12-07T08:08:03;8.73;;;4.53;;
38425;SDS011;24210;51.460;6.148;2022-12-07T08:10:29;8.73;;;5.53;;
38425;SDS011;24210;51.460;6.148;2022-12-07T08:12:54;5.00;;;4.37;;
38425;SDS011;24210;51.460;6.148;2022-12-07T08:15:38;7.50;;;5.25;;
38425;SDS011;24210;51.460;6.148;2022-12-07T08:18:04;10.17;;;4.07;;
38425;SDS011;24210;51.460;6.148;2022-12-07T08:20:30;7.70;;;3.50;;
38425;SDS011;24210;51.460;6.148;2022-12-07T08:22:55;6.97;;;4.20;;
38425;SDS011;24210;51.460;6.148;2022-12-07T08:25:21;8.73;;;5.00;;
38425;SDS011;24210;51.460;6.148;2022-12-07T08:27:47;9.40;;;4.45;;
38425;SDS011;24210;51.460;6.148;2022-12-07T08:30:12;6.47;;;4.77;;
38425;SDS011;24210;51.460;6.148;2022-12-07T08:32:38;7.87;;;4.80;;
38425;SDS011;24210;51.460;6.148;2022-12-07T08:35:03;4.77;;;3.83;;
38425;SDS011;24210;51.460;6.148;2022-12-07T08:37:29;8.90;;;4.53;;
38425;SDS011;24210;51.460;6.148;2022-12-07T08:39:54;7.33;;;3.80;;
38425;SDS011;24210;51.460;6.148;2022-12-07T08:42:19;8.30;;;3.83;;
38425;SDS011;24210;51.460;6.148;2022-12-07T08:44:45;7.87;;;4.87;;
38425;SDS011;24210;51.460;6.148;2022-12-07T08:47:10;4.72;;;2.85;;
38425;SDS011;24210;51.460;6.148;2022-12-07T08:49:37;3.83;;;2.93;;
38425;SDS011;24210;51.460;6.148;2022-12-07T08:52:04;8.98;;;3.88;;
38425;SDS011;24210;51.460;6.148;2022-12-07T08:54:29;3.83;;;3.27;;
38425;SDS011;24210;51.460;6.148;2022-12-07T08:56:55;7.10;;;3.97;;
38425;SDS011;24210;51.460;6.148;2022-12-07T08:59:21;8.10;;;4.20;;
38425;SDS011;24210;51.460;6.148;2022-12-07T09:01:46;6.30;;;3.33;;
38425;SDS011;24210;51.460;6.148;2022-12-07T09:04:11;10.57;;;4.07;;
38425;SDS011;24210;51.460;6.148;2022-12-07T09:06:37;4.57;;;2.60;;
38425;SDS011;24210;51.460;6.148;2022-12-07T09:09:02;5.90;;;3.30;;
38425;SDS011;24210;51.460;6.148;2022-12-07T09:11:28;4.07;;;2.93;;
38425;SDS011;24210;51.460;6.148;2022-12-07T09:13:53;7.67;;;3.00;;
38425;SDS011;24210;51.460;6.148;2022-12-07T09:16:18;4.53;;;2.90;;
38425;SDS011;24210;51.460;6.148;2022-12-07T09:18:43;4.67;;;3.23;;
38425;SDS011;24210;51.460;6.148;2022-12-07T09:21:09;5.87;;;3.13;;
38425;SDS011;24210;51.460;6.148;2022-12-07T09:23:34;3.50;;;2.40;;
38425;SDS011;24210;51.460;6.148;2022-12-07T09:26:00;4.07;;;2.13;;
38425;SDS011;24210;51.460;6.148;2022-12-07T09:28:25;5.10;;;2.45;;
38425;SDS011;24210;51.460;6.148;2022-12-07T09:30:50;7.53;;;3.30;;
38425;SDS011;24210;51.460;6.148;2022-12-07T09:33:16;5.40;;;2.80;;
38425;SDS011;24210;51.460;6.148;2022-12-07T09:35:45;5.50;;;3.23;;
38425;SDS011;24210;51.460;6.148;2022-12-07T09:38:10;3.30;;;2.13;;
38425;SDS011;24210;51.460;6.148;2022-12-07T09:40:36;8.10;;;3.23;;
38425;SDS011;24210;51.460;6.148;2022-12-07T09:43:01;0.93;;;0.20;;
38425;SDS011;24210;51.460;6.148;2022-12-07T09:45:27;5.13;;;1.93;;
38425;SDS011;24210;51.460;6.148;2022-12-07T09:47:55;5.78;;;2.90;;
38425;SDS011;24210;51.460;6.148;2022-12-07T09:50:22;1.10;;;0.70;;
38425;SDS011;24210;51.460;6.148;2022-12-07T09:52:49;10.23;;;3.20;;
38425;SDS011;24210;51.460;6.148;2022-12-07T09:55:16;3.88;;;2.05;;
38425;SDS011;24210;51.460;6.148;2022-12-07T09:57:41;3.60;;;2.60;;
38425;SDS011;24210;51.460;6.148;2022-12-07T10:00:12;1.47;;;1.03;;
38425;SDS011;24210;51.460;6.148;2022-12-07T10:02:41;0.30;;;0.22;;
38425;SDS011;24210;51.460;6.148;2022-12-07T10:05:10;3.00;;;1.45;;
38425;SDS011;24210;51.460;6.148;2022-12-07T10:07:37;0.63;;;0.30;;
38425;SDS011;24210;51.460;6.148;2022-12-07T10:10:03;1.80;;;1.10;;
38425;SDS011;24210;51.460;6.148;2022-12-07T10:12:29;5.20;;;1.77;;
38425;SDS011;24210;51.460;6.148;2022-12-07T10:15:01;5.63;;;1.50;;
38425;SDS011;24210;51.460;6.148;2022-12-07T10:22:52;8.93;;;2.35;;
38425;SDS011;24210;51.460;6.148;2022-12-07T10:25:19;7.78;;;2.95;;
38425;SDS011;24210;51.460;6.148;2022-12-07T10:27:44;3.90;;;1.60;;
38425;SDS011;24210;51.460;6.148;2022-12-07T10:30:21;8.23;;;2.80;;
38425;SDS011;24210;51.460;6.148;2022-12-07T10:32:46;5.33;;;3.00;;
38425;SDS011;24210;51.460;6.148;2022-12-07T10:35:19;7.50;;;2.33;;
38425;SDS011;24210;51.460;6.148;2022-12-07T10:37:46;5.88;;;2.58;;
38425;SDS011;24210;51.460;6.148;2022-12-07T10:40:31;5.57;;;2.07;;
38425;SDS011;24210;51.460;6.148;2022-12-07T10:43:03;7.13;;;2.30;;
38425;SDS011;24210;51.460;6.148;2022-12-07T10:45:29;4.70;;;1.63;;
38425;SDS011;24210;51.460;6.148;2022-12-07T10:58:25;11.07;;;2.72;;
38425;SDS011;24210;51.460;6.148;2022-12-07T11:01:10;5.75;;;2.33;;
38425;SDS011;24210;51.460;6.148;2022-12-07T11:11:38;1.00;;;0.98;;
38425;SDS011;24210;51.460;6.148;2022-12-07T11:14:12;8.20;;;2.05;;
38425;SDS011;24210;51.460;6.148;2022-12-07T11:24:10;3.60;;;1.60;;
38425;SDS011;24210;51.460;6.148;2022-12-07T11:29:27;1.65;;;1.13;;
38425;SDS011;24210;51.460;6.148;2022-12-07T11:37:03;1.17;;;0.63;;
38425;SDS011;24210;51.460;6.148;2022-12-07T11:42:06;1.33;;;0.47;;
38425;SDS011;24210;51.460;6.148;2022-12-07T11:44:49;5.13;;;1.95;;
38425;SDS011;24210;51.460;6.148;2022-12-07T11:47:18;5.07;;;1.55;;
38425;SDS011;24210;51.460;6.148;2022-12-07T11:54:46;5.03;;;0.70;;
38425;SDS011;24210;51.460;6.148;2022-12-07T11:57:16;8.93;;;1.55;;
38425;SDS011;24210;51.460;6.148;2022-12-07T11:59:45;6.93;;;2.08;;
38425;SDS011;24210;51.460;6.148;2022-12-07T12:02:18;3.80;;;1.30;;
38425;SDS011;24210;51.460;6.148;2022-12-07T12:07:33;5.78;;;1.20;;
38425;SDS011;24210;51.460;6.148;2022-12-07T12:10:04;3.43;;;1.03;;
38425;SDS011;24210;51.460;6.148;2022-12-07T12:17:39;7.80;;;1.50;;
38425;SDS011;24210;51.460;6.148;2022-12-07T12:25:43;2.53;;;1.15;;
38425;SDS011;24210;51.460;6.148;2022-12-07T12:33:31;3.58;;;0.88;;
38425;SDS011;24210;51.460;6.148;2022-12-07T12:44:02;8.50;;;1.67;;
38425;SDS011;24210;51.460;6.148;2022-12-07T12:51:41;5.03;;;2.03;;
38425;SDS011;24210;51.460;6.148;2022-12-07T12:54:14;3.70;;;1.17;;
38425;SDS011;24210;51.460;6.148;2022-12-07T12:56:46;5.10;;;1.10;;
38425;SDS011;24210;51.460;6.148;2022-12-07T12:59:19;1.73;;;0.90;;
38425;SDS011;24210;51.460;6.148;2022-12-07T13:01:48;4.03;;;1.88;;
38425;SDS011;24210;51.460;6.148;2022-12-07T13:04:21;5.93;;;1.25;;
38425;SDS011;24210;51.460;6.148;2022-12-07T13:06:48;5.47;;;2.08;;
38425;SDS011;24210;51.460;6.148;2022-12-07T13:09:18;4.53;;;1.35;;
38425;SDS011;24210;51.460;6.148;2022-12-07T13:11:46;3.47;;;1.20;;
38425;SDS011;24210;51.460;6.148;2022-12-07T13:18:36;5.18;;;1.15;;
38425;SDS011;24210;51.460;6.148;2022-12-07T13:20:19;5.10;;;1.15;;
38425;SDS011;24210;51.460;6.148;2022-12-07T13:22:55;3.65;;;0.60;;
38425;SDS011;24210;51.460;6.148;2022-12-07T13:25:30;6.82;;;0.95;;
38425;SDS011;24210;51.460;6.148;2022-12-07T13:28:08;6.15;;;1.65;;
38425;SDS011;24210;51.460;6.148;2022-12-07T13:30:40;5.55;;;0.93;;
38425;SDS011;24210;51.460;6.148;2022-12-07T13:33:08;7.13;;;1.33;;
38425;SDS011;24210;51.460;6.148;2022-12-07T13:35:35;5.70;;;0.80;;
38425;SDS011;24210;51.460;6.148;2022-12-07T13:38:02;3.50;;;0.93;;
38425;SDS011;24210;51.460;6.148;2022-12-07T13:40:28;6.10;;;1.35;;
38425;SDS011;24210;51.460;6.148;2022-12-07T13:42:57;7.13;;;1.40;;
38425;SDS011;24210;51.460;6.148;2022-12-07T13:45:24;2.67;;;0.50;;
38425;SDS011;24210;51.460;6.148;2022-12-07T13:48:30;6.10;;;2.22;;
38425;SDS011;24210;51.460;6.148;2022-12-07T13:50:57;4.38;;;0.90;;
38425;SDS011;24210;51.460;6.148;2022-12-07T13:53:23;5.65;;;0.73;;
38425;SDS011;24210;51.460;6.148;2022-12-07T13:55:49;3.50;;;1.00;;
38425;SDS011;24210;51.460;6.148;2022-12-07T13:58:14;3.33;;;1.43;;
38425;SDS011;24210;51.460;6.148;2022-12-07T14:00:40;6.53;;;0.93;;
38425;SDS011;24210;51.460;6.148;2022-12-07T14:05:37;5.72;;;0.90;;
38425;SDS011;24210;51.460;6.148;2022-12-07T14:08:04;8.30;;;1.48;;
38425;SDS011;24210;51.460;6.148;2022-12-07T14:12:55;3.17;;;1.10;;
38425;SDS011;24210;51.460;6.148;2022-12-07T14:15:21;5.25;;;1.00;;
38425;SDS011;24210;51.460;6.148;2022-12-07T14:17:51;3.83;;;0.85;;
38425;SDS011;24210;51.460;6.148;2022-12-07T14:20:33;2.85;;;2.22;;
38425;SDS011;24210;51.460;6.148;2022-12-07T14:22:58;5.50;;;0.90;;
38425;SDS011;24210;51.460;6.148;2022-12-07T14:25:27;4.73;;;0.53;;
38425;SDS011;24210;51.460;6.148;2022-12-07T14:30:20;1.35;;;0.52;;
38425;SDS011;24210;51.460;6.148;2022-12-07T14:32:46;1.53;;;0.60;;
38425;SDS011;24210;51.460;6.148;2022-12-07T14:35:14;4.03;;;0.90;;
38425;SDS011;24210;51.460;6.148;2022-12-07T14:37:40;3.35;;;0.60;;
38425;SDS011;24210;51.460;6.148;2022-12-07T14:40:06;3.50;;;1.07;;
38425;SDS011;24210;51.460;6.148;2022-12-07T14:42:32;2.47;;;0.50;;
38425;SDS011;24210;51.460;6.148;2022-12-07T14:44:58;2.22;;;0.60;;
38425;SDS011;24210;51.460;6.148;2022-12-07T14:47:24;2.07;;;0.73;;
38425;SDS011;24210;51.460;6.148;2022-12-07T14:49:49;2.87;;;0.47;;
38425;SDS011;24210;51.460;6.148;2022-12-07T14:52:15;4.07;;;2.27;;
38425;SDS011;24210;51.460;6.148;2022-12-07T14:54:41;4.25;;;0.80;;
38425;SDS011;24210;51.460;6.148;2022-12-07T14:57:08;3.03;;;1.13;;
38425;SDS011;24210;51.460;6.148;2022-12-07T15:01:59;5.13;;;0.82;;
38425;SDS011;24210;51.460;6.148;2022-12-07T15:04:24;2.57;;;0.97;;
38425;SDS011;24210;51.460;6.148;2022-12-07T15:07:01;4.30;;;1.10;;
38425;SDS011;24210;51.460;6.148;2022-12-07T15:09:26;4.30;;;0.85;;
38425;SDS011;24210;51.460;6.148;2022-12-07T15:11:51;3.83;;;0.70;;
38425;SDS011;24210;51.460;6.148;2022-12-07T15:14:17;6.13;;;0.80;;
38425;SDS011;24210;51.460;6.148;2022-12-07T15:16:42;6.50;;;1.17;;
38425;SDS011;24210;51.460;6.148;2022-12-07T15:19:12;6.77;;;0.90;;
38425;SDS011;24210;51.460;6.148;2022-12-07T15:21:38;6.93;;;1.20;;
38425;SDS011;24210;51.460;6.148;2022-12-07T15:24:03;5.83;;;1.27;;
38425;SDS011;24210;51.460;6.148;2022-12-07T15:26:28;7.10;;;3.53;;
38425;SDS011;24210;51.460;6.148;2022-12-07T15:28:53;12.50;;;3.90;;
38425;SDS011;24210;51.460;6.148;2022-12-07T15:31:19;9.60;;;4.63;;
38425;SDS011;24210;51.460;6.148;2022-12-07T15:33:44;8.77;;;3.77;;
38425;SDS011;24210;51.460;6.148;2022-12-07T15:36:15;11.93;;;4.33;;
38425;SDS011;24210;51.460;6.148;2022-12-07T15:38:42;8.57;;;4.07;;
38425;SDS011;24210;51.460;6.148;2022-12-07T15:41:08;4.63;;;1.83;;
38425;SDS011;24210;51.460;6.148;2022-12-07T15:43:33;5.43;;;1.10;;
38425;SDS011;24210;51.460;6.148;2022-12-07T15:46:17;3.10;;;1.50;;
38425;SDS011;24210;51.460;6.148;2022-12-07T15:48:42;4.93;;;1.23;;
38425;SDS011;24210;51.460;6.148;2022-12-07T15:51:08;3.03;;;0.97;;
38425;SDS011;24210;51.460;6.148;2022-12-07T15:53:34;3.90;;;1.05;;
38425;SDS011;24210;51.460;6.148;2022-12-07T15:55:59;4.70;;;0.87;;
38425;SDS011;24210;51.460;6.148;2022-12-07T15:58:25;5.03;;;1.30;;
38425;SDS011;24210;51.460;6.148;2022-12-07T16:00:50;2.63;;;0.80;;
38425;SDS011;24210;51.460;6.148;2022-12-07T16:03:15;2.33;;;0.87;;
38425;SDS011;24210;51.460;6.148;2022-12-07T16:05:41;7.93;;;0.83;;
38425;SDS011;24210;51.460;6.148;2022-12-07T16:08:06;1.33;;;0.70;;
38425;SDS011;24210;51.460;6.148;2022-12-07T16:10:31;2.10;;;0.63;;
38425;SDS011;24210;51.460;6.148;2022-12-07T16:12:56;4.60;;;0.60;;
38425;SDS011;24210;51.460;6.148;2022-12-07T16:15:22;6.40;;;3.73;;
38425;SDS011;24210;51.460;6.148;2022-12-07T16:17:49;2.38;;;1.23;;
38425;SDS011;24210;51.460;6.148;2022-12-07T16:20:14;3.53;;;1.70;;
38425;SDS011;24210;51.460;6.148;2022-12-07T16:22:40;4.07;;;2.13;;
38425;SDS011;24210;51.460;6.148;2022-12-07T16:25:05;7.50;;;5.37;;
38425;SDS011;24210;51.460;6.148;2022-12-07T16:27:30;5.33;;;3.23;;
38425;SDS011;24210;51.460;6.148;2022-12-07T16:29:55;2.93;;;1.67;;
38425;SDS011;24210;51.460;6.148;2022-12-07T16:32:21;2.10;;;1.07;;
38425;SDS011;24210;51.460;6.148;2022-12-07T16:34:46;5.33;;;1.17;;
38425;SDS011;24210;51.460;6.148;2022-12-07T16:37:11;1.53;;;0.70;;
38425;SDS011;24210;51.460;6.148;2022-12-07T16:39:36;4.90;;;0.63;;
38425;SDS011;24210;51.460;6.148;2022-12-07T16:42:01;2.90;;;1.07;;
38425;SDS011;24210;51.460;6.148;2022-12-07T16:44:27;3.30;;;0.83;;
38425;SDS011;24210;51.460;6.148;2022-12-07T16:46:53;1.73;;;1.43;;
38425;SDS011;24210;51.460;6.148;2022-12-07T16:49:18;3.57;;;1.00;;
38425;SDS011;24210;51.460;6.148;2022-12-07T16:51:44;4.27;;;3.33;;
38425;SDS011;24210;51.460;6.148;2022-12-07T16:54:10;5.73;;;2.57;;